sensor_id;sensor_type;location;lat;lon;timestamp;temperature;humidity
5848;DHT22;8756;49.29324300;8.70599800;2022-11-20T00:01:21;4.00;99.90
5848;DHT22;8756;49.29324300;8.70599800;2022-11-20T00:03:51;4.00;99.90
5848;DHT22;8756;49.29324300;8.70599800;2022-11-20T00:06:19;4.00;99.90
5848;DHT22;8756;49.29324300;8.70599800;2022-11-20T00:08:45;3.90;99.90
5848;DHT22;8756;49.29324300;8.70599800;2022-11-20T00:11:17;3.90;99.90
5848;DHT22;8756;49.29324300;8.70599800;2022-11-20T00:13:44;3.90;99.90
5848;DHT22;8756;49.29324300;8.70599800;2022-11-20T00:16:13;3.90;99.90
5848;DHT22;8756;49.29324300;8.70599800;2022-11-20T00:18:40;3.90;99.90
5848;DHT22;8756;49.29324300;8.70599800;2022-11-20T00:21:18;3.90;99.90
5848;DHT22;8756;49.29324300;8.70599800;2022-11-20T00:23:44;3.80;99.90
5848;DHT22;8756;49.29324300;8.70599800;2022-11-20T00:26:15;3.80;99.90
5848;DHT22;8756;49.29324300;8.70599800;2022-11-20T00:28:43;3.80;99.90
5848;DHT22;8756;49.29324300;8.70599800;2022-11-20T00:31:11;3.80;99.90
5848;DHT22;8756;49.29324300;8.70599800;2022-11-20T00:33:38;3.80;99.90
5848;DHT22;8756;49.29324300;8.70599800;2022-11-20T00:36:09;3.90;99.90
5848;DHT22;8756;49.29324300;8.70599800;2022-11-20T00:38:36;3.90;99.90
5848;DHT22;8756;49.29324300;8.70599800;2022-11-20T00:41:05;3.90;99.90
5848;DHT22;8756;49.29324300;8.70599800;2022-11-20T00:43:32;3.90;99.90
5848;DHT22;8756;49.29324300;8.70599800;2022-11-20T00:45:58;3.90;99.90
5848;DHT22;8756;49.29324300;8.70599800;2022-11-20T00:48:31;3.90;99.90
5848;DHT22;8756;49.29324300;8.70599800;2022-11-20T00:50:57;3.90;99.90
5848;DHT22;8756;49.29324300;8.70599800;2022-11-20T00:53:23;3.90;99.90
5848;DHT22;8756;49.29324300;8.70599800;2022-11-20T00:56:03;3.90;99.90
5848;DHT22;8756;49.29324300;8.70599800;2022-11-20T00:58:36;3.90;99.90
5848;DHT22;8756;49.29324300;8.70599800;2022-11-20T01:01:07;4.00;99.90
5848;DHT22;8756;49.29324300;8.70599800;2022-11-20T01:03:35;4.00;99.90
5848;DHT22;8756;49.29324300;8.70599800;2022-11-20T01:06:09;4.00;99.90
5848;DHT22;8756;49.29324300;8.70599800;2022-11-20T01:08:37;3.90;99.90
5848;DHT22;8756;49.29324300;8.70599800;2022-11-20T01:11:09;3.90;99.90
5848;DHT22;8756;49.29324300;8.70599800;2022-11-20T01:13:40;3.90;99.90
5848;DHT22;8756;49.29324300;8.70599800;2022-11-20T01:18:50;3.90;99.90
5848;DHT22;8756;49.29324300;8.70599800;2022-11-20T01:21:20;3.90;99.90
5848;DHT22;8756;49.29324300;8.70599800;2022-11-20T01:23:48;3.80;99.90
5848;DHT22;8756;49.29324300;8.70599800;2022-11-20T01:26:17;3.90;99.90
5848;DHT22;8756;49.29324300;8.70599800;2022-11-20T01:28:44;3.90;99.90
5848;DHT22;8756;49.29324300;8.70599800;2022-11-20T01:31:19;3.90;99.90
5848;DHT22;8756;49.29324300;8.70599800;2022-11-20T01:33:47;3.90;99.90
5848;DHT22;8756;49.29324300;8.70599800;2022-11-20T01:36:15;3.90;99.90
5848;DHT22;8756;49.29324300;8.70599800;2022-11-20T01:38:42;3.90;99.90
5848;DHT22;8756;49.29324300;8.70599800;2022-11-20T01:41:10;3.90;99.90
5848;DHT22;8756;49.29324300;8.70599800;2022-11-20T01:43:56;3.90;99.90
5848;DHT22;8756;49.29324300;8.70599800;2022-11-20T01:46:22;3.90;99.90
5848;DHT22;8756;49.29324300;8.70599800;2022-11-20T01:48:58;4.00;99.90
5848;DHT22;8756;49.29324300;8.70599800;2022-11-20T01:51:29;4.00;99.90
5848;DHT22;8756;49.29324300;8.70599800;2022-11-20T01:54:01;4.10;99.90
5848;DHT22;8756;49.29324300;8.70599800;2022-11-20T01:56:31;4.10;99.90
5848;DHT22;8756;49.29324300;8.70599800;2022-11-20T01:59:00;4.00;99.90
5848;DHT22;8756;49.29324300;8.70599800;2022-11-20T02:01:27;4.00;99.90
5848;DHT22;8756;49.29324300;8.70599800;2022-11-20T02:03:53;4.00;99.90
5848;DHT22;8756;49.29324300;8.70599800;2022-11-20T02:06:23;4.00;99.90
5848;DHT22;8756;49.29324300;8.70599800;2022-11-20T02:08:51;4.00;99.90
5848;DHT22;8756;49.29324300;8.70599800;2022-11-20T02:11:18;4.00;99.90
5848;DHT22;8756;49.29324300;8.70599800;2022-11-20T02:13:44;4.00;99.90
5848;DHT22;8756;49.29324300;8.70599800;2022-11-20T02:16:22;4.00;99.90
5848;DHT22;8756;49.29324300;8.70599800;2022-11-20T02:18:50;4.00;99.90
5848;DHT22;8756;49.29324300;8.70599800;2022-11-20T02:24:12;4.00;99.90
5848;DHT22;8756;49.29324300;8.70599800;2022-11-20T02:26:47;4.00;99.90
5848;DHT22;8756;49.29324300;8.70599800;2022-11-20T02:29:19;4.00;99.90
5848;DHT22;8756;49.29324300;8.70599800;2022-11-20T02:31:50;4.00;99.90
5848;DHT22;8756;49.29324300;8.70599800;2022-11-20T02:34:16;4.00;99.90
5848;DHT22;8756;49.29324300;8.70599800;2022-11-20T02:36:42;4.10;99.90
5848;DHT22;8756;49.29324300;8.70599800;2022-11-20T02:39:11;4.20;99.90
5848;DHT22;8756;49.29324300;8.70599800;2022-11-20T02:41:37;4.20;99.90
5848;DHT22;8756;49.29324300;8.70599800;2022-11-20T02:44:04;4.20;99.90
5848;DHT22;8756;49.29324300;8.70599800;2022-11-20T02:46:31;4.20;99.90
5848;DHT22;8756;49.29324300;8.70599800;2022-11-20T02:48:57;4.20;99.90
5848;DHT22;8756;49.29324300;8.70599800;2022-11-20T02:51:23;4.20;99.90
5848;DHT22;8756;49.29324300;8.70599800;2022-11-20T02:53:50;4.20;99.90
5848;DHT22;8756;49.29324300;8.70599800;2022-11-20T02:56:16;4.10;99.90
5848;DHT22;8756;49.29324300;8.70599800;2022-11-20T02:58:41;4.10;99.90
5848;DHT22;8756;49.29324300;8.70599800;2022-11-20T03:01:07;4.10;99.90
5848;DHT22;8756;49.29324300;8.70599800;2022-11-20T03:03:33;4.10;99.90
5848;DHT22;8756;49.29324300;8.70599800;2022-11-20T03:05:59;4.10;99.90
5848;DHT22;8756;49.29324300;8.70599800;2022-11-20T03:08:25;4.20;99.90
5848;DHT22;8756;49.29324300;8.70599800;2022-11-20T03:10:51;4.20;99.90
5848;DHT22;8756;49.29324300;8.70599800;2022-11-20T03:13:17;4.30;99.90
5848;DHT22;8756;49.29324300;8.70599800;2022-11-20T03:15:42;4.30;99.90
5848;DHT22;8756;49.29324300;8.70599800;2022-11-20T03:18:08;4.30;99.90
5848;DHT22;8756;49.29324300;8.70599800;2022-11-20T03:20:34;4.30;99.90
5848;DHT22;8756;49.29324300;8.70599800;2022-11-20T03:23:00;4.20;99.90
5848;DHT22;8756;49.29324300;8.70599800;2022-11-20T03:25:26;4.20;99.90
5848;DHT22;8756;49.29324300;8.70599800;2022-11-20T03:27:53;4.20;99.90
5848;DHT22;8756;49.29324300;8.70599800;2022-11-20T03:30:19;4.30;99.90
5848;DHT22;8756;49.29324300;8.70599800;2022-11-20T03:32:45;4.30;99.90
5848;DHT22;8756;49.29324300;8.70599800;2022-11-20T03:35:11;4.30;99.90
5848;DHT22;8756;49.29324300;8.70599800;2022-11-20T03:37:37;4.30;99.90
5848;DHT22;8756;49.29324300;8.70599800;2022-11-20T03:40:03;4.30;99.90
5848;DHT22;8756;49.29324300;8.70599800;2022-11-20T03:42:29;4.30;99.90
5848;DHT22;8756;49.29324300;8.70599800;2022-11-20T03:45:17;4.30;99.90
5848;DHT22;8756;49.29324300;8.70599800;2022-11-20T03:47:44;4.30;99.90
5848;DHT22;8756;49.29324300;8.70599800;2022-11-20T03:50:12;4.30;99.90
5848;DHT22;8756;49.29324300;8.70599800;2022-11-20T03:52:39;4.30;99.90
5848;DHT22;8756;49.29324300;8.70599800;2022-11-20T03:55:06;4.30;99.90
5848;DHT22;8756;49.29324300;8.70599800;2022-11-20T03:57:32;4.40;99.90
5848;DHT22;8756;49.29324300;8.70599800;2022-11-20T03:59:58;4.40;99.90
5848;DHT22;8756;49.29324300;8.70599800;2022-11-20T04:02:23;4.50;99.90
5848;DHT22;8756;49.29324300;8.70599800;2022-11-20T04:04:49;4.50;99.90
5848;DHT22;8756;49.29324300;8.70599800;2022-11-20T04:07:15;4.60;99.90
5848;DHT22;8756;49.29324300;8.70599800;2022-11-20T04:09:40;4.60;99.90
5848;DHT22;8756;49.29324300;8.70599800;2022-11-20T04:12:06;4.60;99.90
5848;DHT22;8756;49.29324300;8.70599800;2022-11-20T04:14:32;4.50;99.90
5848;DHT22;8756;49.29324300;8.70599800;2022-11-20T04:16:57;4.50;99.90
5848;DHT22;8756;49.29324300;8.70599800;2022-11-20T04:19:23;4.50;99.90
5848;DHT22;8756;49.29324300;8.70599800;2022-11-20T04:21:48;4.50;99.90
5848;DHT22;8756;49.29324300;8.70599800;2022-11-20T04:24:14;4.40;99.90
5848;DHT22;8756;49.29324300;8.70599800;2022-11-20T04:26:40;4.40;99.90
5848;DHT22;8756;49.29324300;8.70599800;2022-11-20T04:29:06;4.40;99.90
5848;DHT22;8756;49.29324300;8.70599800;2022-11-20T04:31:33;4.40;99.90
5848;DHT22;8756;49.29324300;8.70599800;2022-11-20T04:34:01;4.40;99.90
5848;DHT22;8756;49.29324300;8.70599800;2022-11-20T04:36:30;4.40;99.90
5848;DHT22;8756;49.29324300;8.70599800;2022-11-20T04:38:59;4.50;99.90
5848;DHT22;8756;49.29324300;8.70599800;2022-11-20T04:41:29;4.50;99.90
5848;DHT22;8756;49.29324300;8.70599800;2022-11-20T04:43:58;4.60;99.90
5848;DHT22;8756;49.29324300;8.70599800;2022-11-20T04:46:28;4.60;99.90
5848;DHT22;8756;49.29324300;8.70599800;2022-11-20T04:48:55;4.70;99.90
5848;DHT22;8756;49.29324300;8.70599800;2022-11-20T04:51:20;4.70;99.90
5848;DHT22;8756;49.29324300;8.70599800;2022-11-20T04:53:46;4.70;99.90
5848;DHT22;8756;49.29324300;8.70599800;2022-11-20T04:56:12;4.70;99.90
5848;DHT22;8756;49.29324300;8.70599800;2022-11-20T04:58:39;4.70;99.90
5848;DHT22;8756;49.29324300;8.70599800;2022-11-20T05:01:11;4.80;99.90
5848;DHT22;8756;49.29324300;8.70599800;2022-11-20T05:03:39;4.80;99.90
5848;DHT22;8756;49.29324300;8.70599800;2022-11-20T05:06:06;4.80;99.90
5848;DHT22;8756;49.29324300;8.70599800;2022-11-20T05:08:33;4.80;99.90
5848;DHT22;8756;49.29324300;8.70599800;2022-11-20T05:11:11;4.80;99.90
5848;DHT22;8756;49.29324300;8.70599800;2022-11-20T05:13:38;4.80;99.90
5848;DHT22;8756;49.29324300;8.70599800;2022-11-20T05:16:06;4.80;99.90
5848;DHT22;8756;49.29324300;8.70599800;2022-11-20T05:18:34;4.80;99.90
5848;DHT22;8756;49.29324300;8.70599800;2022-11-20T05:21:00;4.80;99.90
5848;DHT22;8756;49.29324300;8.70599800;2022-11-20T05:23:27;4.90;99.90
5848;DHT22;8756;49.29324300;8.70599800;2022-11-20T05:25:54;4.90;99.90
5848;DHT22;8756;49.29324300;8.70599800;2022-11-20T05:28:20;5.00;99.90
5848;DHT22;8756;49.29324300;8.70599800;2022-11-20T05:30:47;5.00;99.90
5848;DHT22;8756;49.29324300;8.70599800;2022-11-20T05:33:13;5.00;99.90
5848;DHT22;8756;49.29324300;8.70599800;2022-11-20T05:35:39;5.00;99.90
5848;DHT22;8756;49.29324300;8.70599800;2022-11-20T05:38:05;5.00;99.90
5848;DHT22;8756;49.29324300;8.70599800;2022-11-20T05:40:31;5.00;99.90
5848;DHT22;8756;49.29324300;8.70599800;2022-11-20T05:42:56;5.00;99.90
5848;DHT22;8756;49.29324300;8.70599800;2022-11-20T05:45:22;5.00;99.90
5848;DHT22;8756;49.29324300;8.70599800;2022-11-20T05:47:48;5.00;99.90
5848;DHT22;8756;49.29324300;8.70599800;2022-11-20T05:50:14;5.00;99.90
5848;DHT22;8756;49.29324300;8.70599800;2022-11-20T05:52:40;5.10;99.90
5848;DHT22;8756;49.29324300;8.70599800;2022-11-20T05:55:06;5.00;99.90
5848;DHT22;8756;49.29324300;8.70599800;2022-11-20T05:57:33;5.00;99.90
5848;DHT22;8756;49.29324300;8.70599800;2022-11-20T05:59:58;5.00;99.90
5848;DHT22;8756;49.29324300;8.70599800;2022-11-20T06:02:24;5.10;99.90
5848;DHT22;8756;49.29324300;8.70599800;2022-11-20T06:04:50;5.10;99.90
5848;DHT22;8756;49.29324300;8.70599800;2022-11-20T06:07:16;5.20;99.90
5848;DHT22;8756;49.29324300;8.70599800;2022-11-20T06:09:41;5.20;99.90
5848;DHT22;8756;49.29324300;8.70599800;2022-11-20T06:12:07;5.20;99.90
5848;DHT22;8756;49.29324300;8.70599800;2022-11-20T06:14:33;5.30;99.90
5848;DHT22;8756;49.29324300;8.70599800;2022-11-20T06:16:59;5.30;99.90
5848;DHT22;8756;49.29324300;8.70599800;2022-11-20T06:19:25;5.40;99.90
5848;DHT22;8756;49.29324300;8.70599800;2022-11-20T06:21:50;5.40;99.90
5848;DHT22;8756;49.29324300;8.70599800;2022-11-20T06:24:17;5.40;99.90
5848;DHT22;8756;49.29324300;8.70599800;2022-11-20T06:26:43;5.40;99.90
5848;DHT22;8756;49.29324300;8.70599800;2022-11-20T06:29:09;5.50;99.90
5848;DHT22;8756;49.29324300;8.70599800;2022-11-20T06:31:34;5.50;99.90
5848;DHT22;8756;49.29324300;8.70599800;2022-11-20T06:34:04;5.60;99.90
5848;DHT22;8756;49.29324300;8.70599800;2022-11-20T06:36:32;5.60;99.90
5848;DHT22;8756;49.29324300;8.70599800;2022-11-20T06:38:59;5.60;99.90
5848;DHT22;8756;49.29324300;8.70599800;2022-11-20T06:41:25;5.70;99.90
5848;DHT22;8756;49.29324300;8.70599800;2022-11-20T06:43:51;5.70;99.90
5848;DHT22;8756;49.29324300;8.70599800;2022-11-20T06:46:18;5.70;99.90
5848;DHT22;8756;49.29324300;8.70599800;2022-11-20T06:48:46;5.70;99.90
5848;DHT22;8756;49.29324300;8.70599800;2022-11-20T06:51:15;5.70;99.90
5848;DHT22;8756;49.29324300;8.70599800;2022-11-20T06:53:41;5.70;99.90
5848;DHT22;8756;49.29324300;8.70599800;2022-11-20T06:56:07;5.80;99.90
5848;DHT22;8756;49.29324300;8.70599800;2022-11-20T06:58:34;5.80;99.90
5848;DHT22;8756;49.29324300;8.70599800;2022-11-20T07:01:19;5.90;99.90
5848;DHT22;8756;49.29324300;8.70599800;2022-11-20T07:03:48;5.80;99.90
5848;DHT22;8756;49.29324300;8.70599800;2022-11-20T07:06:14;5.90;99.90
5848;DHT22;8756;49.29324300;8.70599800;2022-11-20T07:08:39;5.90;99.90
5848;DHT22;8756;49.29324300;8.70599800;2022-11-20T07:11:07;5.90;99.90
5848;DHT22;8756;49.29324300;8.70599800;2022-11-20T07:13:33;5.90;99.90
5848;DHT22;8756;49.29324300;8.70599800;2022-11-20T07:16:01;5.90;99.90
5848;DHT22;8756;49.29324300;8.70599800;2022-11-20T07:18:28;5.90;99.90
5848;DHT22;8756;49.29324300;8.70599800;2022-11-20T07:20:54;6.00;99.90
5848;DHT22;8756;49.29324300;8.70599800;2022-11-20T07:23:20;6.00;99.90
5848;DHT22;8756;49.29324300;8.70599800;2022-11-20T07:25:45;6.00;99.90
5848;DHT22;8756;49.29324300;8.70599800;2022-11-20T07:28:11;6.00;99.90
5848;DHT22;8756;49.29324300;8.70599800;2022-11-20T07:30:37;6.00;99.90
5848;DHT22;8756;49.29324300;8.70599800;2022-11-20T07:33:03;6.10;99.90
5848;DHT22;8756;49.29324300;8.70599800;2022-11-20T07:35:28;6.10;99.90
5848;DHT22;8756;49.29324300;8.70599800;2022-11-20T07:37:54;6.10;99.90
5848;DHT22;8756;49.29324300;8.70599800;2022-11-20T07:40:20;6.10;99.90
5848;DHT22;8756;49.29324300;8.70599800;2022-11-20T07:42:50;6.10;99.90
5848;DHT22;8756;49.29324300;8.70599800;2022-11-20T07:45:18;6.20;99.90
5848;DHT22;8756;49.29324300;8.70599800;2022-11-20T07:47:44;6.20;99.90
5848;DHT22;8756;49.29324300;8.70599800;2022-11-20T07:50:10;6.30;99.90
5848;DHT22;8756;49.29324300;8.70599800;2022-11-20T07:52:37;6.30;99.90
5848;DHT22;8756;49.29324300;8.70599800;2022-11-20T07:55:02;6.30;99.90
5848;DHT22;8756;49.29324300;8.70599800;2022-11-20T07:57:28;6.30;99.90
5848;DHT22;8756;49.29324300;8.70599800;2022-11-20T07:59:54;6.40;99.90
5848;DHT22;8756;49.29324300;8.70599800;2022-11-20T08:02:20;6.40;99.90
5848;DHT22;8756;49.29324300;8.70599800;2022-11-20T08:04:45;6.40;99.90
5848;DHT22;8756;49.29324300;8.70599800;2022-11-20T08:07:11;6.40;99.90
5848;DHT22;8756;49.29324300;8.70599800;2022-11-20T08:09:37;6.50;99.90
5848;DHT22;8756;49.29324300;8.70599800;2022-11-20T08:12:02;6.50;99.90
5848;DHT22;8756;49.29324300;8.70599800;2022-11-20T08:14:46;6.50;99.90
5848;DHT22;8756;49.29324300;8.70599800;2022-11-20T08:17:12;6.60;99.90
5848;DHT22;8756;49.29324300;8.70599800;2022-11-20T08:19:38;6.60;99.90
5848;DHT22;8756;49.29324300;8.70599800;2022-11-20T08:22:04;6.60;99.90
5848;DHT22;8756;49.29324300;8.70599800;2022-11-20T08:24:29;6.60;99.90
5848;DHT22;8756;49.29324300;8.70599800;2022-11-20T08:26:58;6.70;99.90
5848;DHT22;8756;49.29324300;8.70599800;2022-11-20T08:29:27;6.70;99.90
5848;DHT22;8756;49.29324300;8.70599800;2022-11-20T08:31:52;6.70;99.90
5848;DHT22;8756;49.29324300;8.70599800;2022-11-20T08:34:18;6.70;99.90
5848;DHT22;8756;49.29324300;8.70599800;2022-11-20T08:36:44;6.70;99.90
5848;DHT22;8756;49.29324300;8.70599800;2022-11-20T08:39:13;6.80;99.90
5848;DHT22;8756;49.29324300;8.70599800;2022-11-20T08:41:39;6.80;99.90
5848;DHT22;8756;49.29324300;8.70599800;2022-11-20T08:44:07;6.80;99.90
5848;DHT22;8756;49.29324300;8.70599800;2022-11-20T08:46:38;6.90;99.90
5848;DHT22;8756;49.29324300;8.70599800;2022-11-20T08:49:08;6.90;99.90
5848;DHT22;8756;49.29324300;8.70599800;2022-11-20T08:51:36;6.90;99.90
5848;DHT22;8756;49.29324300;8.70599800;2022-11-20T08:54:03;6.90;99.90
5848;DHT22;8756;49.29324300;8.70599800;2022-11-20T08:56:30;7.00;99.90
5848;DHT22;8756;49.29324300;8.70599800;2022-11-20T08:58:56;7.00;99.90
5848;DHT22;8756;49.29324300;8.70599800;2022-11-20T09:01:23;7.00;99.90
5848;DHT22;8756;49.29324300;8.70599800;2022-11-20T09:03:49;7.00;99.90
5848;DHT22;8756;49.29324300;8.70599800;2022-11-20T09:06:15;7.00;99.90
5848;DHT22;8756;49.29324300;8.70599800;2022-11-20T09:08:42;7.00;99.90
5848;DHT22;8756;49.29324300;8.70599800;2022-11-20T09:11:08;7.10;99.90
5848;DHT22;8756;49.29324300;8.70599800;2022-11-20T09:13:35;7.10;99.90
5848;DHT22;8756;49.29324300;8.70599800;2022-11-20T09:16:04;7.10;99.90
5848;DHT22;8756;49.29324300;8.70599800;2022-11-20T09:18:32;7.10;99.90
5848;DHT22;8756;49.29324300;8.70599800;2022-11-20T09:21:00;7.10;99.90
5848;DHT22;8756;49.29324300;8.70599800;2022-11-20T09:23:27;7.10;99.90
5848;DHT22;8756;49.29324300;8.70599800;2022-11-20T09:25:56;7.10;99.90
5848;DHT22;8756;49.29324300;8.70599800;2022-11-20T09:28:25;7.10;99.90
5848;DHT22;8756;49.29324300;8.70599800;2022-11-20T09:30:51;7.10;99.90
5848;DHT22;8756;49.29324300;8.70599800;2022-11-20T09:33:17;7.20;99.90
5848;DHT22;8756;49.29324300;8.70599800;2022-11-20T09:35:44;7.10;99.90
5848;DHT22;8756;49.29324300;8.70599800;2022-11-20T09:38:10;7.10;99.90
5848;DHT22;8756;49.29324300;8.70599800;2022-11-20T09:40:40;7.20;99.90
5848;DHT22;8756;49.29324300;8.70599800;2022-11-20T09:43:18;7.20;99.90
5848;DHT22;8756;49.29324300;8.70599800;2022-11-20T09:46:29;7.20;99.90
5848;DHT22;8756;49.29324300;8.70599800;2022-11-20T09:52:32;7.30;99.90
5848;DHT22;8756;49.29324300;8.70599800;2022-11-20T09:55:12;7.30;99.90
5848;DHT22;8756;49.29324300;8.70599800;2022-11-20T09:57:41;7.30;99.90
5848;DHT22;8756;49.29324300;8.70599800;2022-11-20T10:00:14;7.30;99.90
5848;DHT22;8756;49.29324300;8.70599800;2022-11-20T10:02:55;7.40;99.90
5848;DHT22;8756;49.29324300;8.70599800;2022-11-20T10:05:30;7.40;99.90
5848;DHT22;8756;49.29324300;8.70599800;2022-11-20T10:08:19;7.40;99.90
5848;DHT22;8756;49.29324300;8.70599800;2022-11-20T10:14:18;7.40;99.90
5848;DHT22;8756;49.29324300;8.70599800;2022-11-20T10:17:00;7.50;99.90
5848;DHT22;8756;49.29324300;8.70599800;2022-11-20T10:22:13;7.40;99.90
5848;DHT22;8756;49.29324300;8.70599800;2022-11-20T10:25:15;7.50;99.90
5848;DHT22;8756;49.29324300;8.70599800;2022-11-20T10:27:58;7.50;99.90
5848;DHT22;8756;49.29324300;8.70599800;2022-11-20T10:30:46;7.50;99.90
5848;DHT22;8756;49.29324300;8.70599800;2022-11-20T10:33:24;7.50;99.90
5848;DHT22;8756;49.29324300;8.70599800;2022-11-20T10:38:39;7.60;99.90
5848;DHT22;8756;49.29324300;8.70599800;2022-11-20T10:41:30;7.60;99.90
5848;DHT22;8756;49.29324300;8.70599800;2022-11-20T10:47:01;7.60;99.90
5848;DHT22;8756;49.29324300;8.70599800;2022-11-20T10:49:30;7.60;99.90
5848;DHT22;8756;49.29324300;8.70599800;2022-11-20T10:54:49;7.60;99.90
5848;DHT22;8756;49.29324300;8.70599800;2022-11-20T11:00:41;7.60;99.90
5848;DHT22;8756;49.29324300;8.70599800;2022-11-20T11:03:34;7.60;99.90
5848;DHT22;8756;49.29324300;8.70599800;2022-11-20T11:08:41;7.70;99.90
5848;DHT22;8756;49.29324300;8.70599800;2022-11-20T11:13:47;7.80;99.90
5848;DHT22;8756;49.29324300;8.70599800;2022-11-20T11:16:24;7.80;99.90
5848;DHT22;8756;49.29324300;8.70599800;2022-11-20T11:19:02;7.90;99.90
5848;DHT22;8756;49.29324300;8.70599800;2022-11-20T11:21:38;7.90;99.90
5848;DHT22;8756;49.29324300;8.70599800;2022-11-20T11:24:22;8.00;99.90
5848;DHT22;8756;49.29324300;8.70599800;2022-11-20T11:27:01;8.00;99.90
5848;DHT22;8756;49.29324300;8.70599800;2022-11-20T11:29:32;8.00;99.90
5848;DHT22;8756;49.29324300;8.70599800;2022-11-20T11:32:07;8.00;99.90
5848;DHT22;8756;49.29324300;8.70599800;2022-11-20T11:34:36;8.00;99.90
5848;DHT22;8756;49.29324300;8.70599800;2022-11-20T11:37:02;8.00;99.90
5848;DHT22;8756;49.29324300;8.70599800;2022-11-20T11:39:32;8.00;99.90
5848;DHT22;8756;49.29324300;8.70599800;2022-11-20T11:42:00;8.10;99.90
5848;DHT22;8756;49.29324300;8.70599800;2022-11-20T11:44:33;8.20;99.90
5848;DHT22;8756;49.29324300;8.70599800;2022-11-20T11:47:25;8.20;99.90
5848;DHT22;8756;49.29324300;8.70599800;2022-11-20T12:01:12;8.40;99.90
5848;DHT22;8756;49.29324300;8.70599800;2022-11-20T12:03:46;8.40;99.90
5848;DHT22;8756;49.29324300;8.70599800;2022-11-20T12:06:18;8.50;99.90
5848;DHT22;8756;49.29324300;8.70599800;2022-11-20T12:08:56;8.50;99.90
5848;DHT22;8756;49.29324300;8.70599800;2022-11-20T12:14:41;8.50;99.90
5848;DHT22;8756;49.29324300;8.70599800;2022-11-20T12:17:13;8.60;99.90
5848;DHT22;8756;49.29324300;8.70599800;2022-11-20T12:19:39;8.60;99.90
5848;DHT22;8756;49.29324300;8.70599800;2022-11-20T12:25:24;8.60;99.90
5848;DHT22;8756;49.29324300;8.70599800;2022-11-20T12:36:59;8.60;99.90
5848;DHT22;8756;49.29324300;8.70599800;2022-11-20T12:39:42;8.60;99.90
5848;DHT22;8756;49.29324300;8.70599800;2022-11-20T12:45:32;8.70;99.90
5848;DHT22;8756;49.29324300;8.70599800;2022-11-20T12:48:35;8.70;99.90
5848;DHT22;8756;49.29324300;8.70599800;2022-11-20T12:54:13;8.80;99.90
5848;DHT22;8756;49.29324300;8.70599800;2022-11-20T13:00:10;8.90;99.90
5848;DHT22;8756;49.29324300;8.70599800;2022-11-20T13:08:42;9.00;99.90
5848;DHT22;8756;49.29324300;8.70599800;2022-11-20T13:14:04;9.10;99.90
5848;DHT22;8756;49.29324300;8.70599800;2022-11-20T13:17:22;9.10;99.90
5848;DHT22;8756;49.29324300;8.70599800;2022-11-20T13:19:55;9.10;99.90
5848;DHT22;8756;49.29324300;8.70599800;2022-11-20T13:22:28;9.10;99.90
5848;DHT22;8756;49.29324300;8.70599800;2022-11-20T13:24:56;9.00;99.90
5848;DHT22;8756;49.29324300;8.70599800;2022-11-20T13:27:25;9.00;99.90
5848;DHT22;8756;49.29324300;8.70599800;2022-11-20T13:30:24;9.00;99.90
5848;DHT22;8756;49.29324300;8.70599800;2022-11-20T13:35:33;9.10;99.90
5848;DHT22;8756;49.29324300;8.70599800;2022-11-20T13:38:09;9.20;99.90
5848;DHT22;8756;49.29324300;8.70599800;2022-11-20T13:40:38;9.20;99.90
5848;DHT22;8756;49.29324300;8.70599800;2022-11-20T13:43:26;9.20;99.90
5848;DHT22;8756;49.29324300;8.70599800;2022-11-20T13:46:09;9.20;99.90
5848;DHT22;8756;49.29324300;8.70599800;2022-11-20T13:48:43;9.10;99.90
5848;DHT22;8756;49.29324300;8.70599800;2022-11-20T13:56:54;9.10;99.90
5848;DHT22;8756;49.29324300;8.70599800;2022-11-20T14:02:15;9.10;99.90
5848;DHT22;8756;49.29324300;8.70599800;2022-11-20T14:04:48;9.00;99.90
5848;DHT22;8756;49.29324300;8.70599800;2022-11-20T14:07:17;9.10;99.90
5848;DHT22;8756;49.29324300;8.70599800;2022-11-20T14:09:52;9.00;99.90
5848;DHT22;8756;49.29324300;8.70599800;2022-11-20T14:12:32;9.00;99.90
5848;DHT22;8756;49.29324300;8.70599800;2022-11-20T14:14:59;9.00;99.90
5848;DHT22;8756;49.29324300;8.70599800;2022-11-20T14:19:55;8.90;99.90
5848;DHT22;8756;49.29324300;8.70599800;2022-11-20T14:22:25;8.80;99.90
5848;DHT22;8756;49.29324300;8.70599800;2022-11-20T14:27:48;8.80;99.90
5848;DHT22;8756;49.29324300;8.70599800;2022-11-20T14:30:28;8.70;99.90
5848;DHT22;8756;49.29324300;8.70599800;2022-11-20T14:33:10;8.70;99.90
5848;DHT22;8756;49.29324300;8.70599800;2022-11-20T14:35:44;8.70;99.90
5848;DHT22;8756;49.29324300;8.70599800;2022-11-20T14:38:14;8.60;99.90
5848;DHT22;8756;49.29324300;8.70599800;2022-11-20T14:40:41;8.60;99.90
5848;DHT22;8756;49.29324300;8.70599800;2022-11-20T14:43:19;8.50;99.90
5848;DHT22;8756;49.29324300;8.70599800;2022-11-20T14:46:07;8.50;99.90
5848;DHT22;8756;49.29324300;8.70599800;2022-11-20T14:48:49;8.40;99.90
5848;DHT22;8756;49.29324300;8.70599800;2022-11-20T14:51:31;8.40;99.90
5848;DHT22;8756;49.29324300;8.70599800;2022-11-20T14:54:20;8.40;99.90
5848;DHT22;8756;49.29324300;8.70599800;2022-11-20T14:57:01;8.30;99.90
5848;DHT22;8756;49.29324300;8.70599800;2022-11-20T14:59:33;8.30;99.90
5848;DHT22;8756;49.29324300;8.70599800;2022-11-20T15:02:09;8.20;99.90
5848;DHT22;8756;49.29324300;8.70599800;2022-11-20T15:04:46;8.20;99.90
5848;DHT22;8756;49.29324300;8.70599800;2022-11-20T15:07:24;8.20;99.90
5848;DHT22;8756;49.29324300;8.70599800;2022-11-20T15:10:06;8.10;99.90
5848;DHT22;8756;49.29324300;8.70599800;2022-11-20T15:12:36;8.10;99.90
5848;DHT22;8756;49.29324300;8.70599800;2022-11-20T15:15:04;8.10;99.90
5848;DHT22;8756;49.29324300;8.70599800;2022-11-20T15:17:32;8.10;99.90
5848;DHT22;8756;49.29324300;8.70599800;2022-11-20T15:19:59;8.10;99.90
5848;DHT22;8756;49.29324300;8.70599800;2022-11-20T15:22:26;8.10;99.90
5848;DHT22;8756;49.29324300;8.70599800;2022-11-20T15:24:51;8.00;99.90
5848;DHT22;8756;49.29324300;8.70599800;2022-11-20T15:27:23;8.00;99.90
5848;DHT22;8756;49.29324300;8.70599800;2022-11-20T15:29:48;8.00;99.90
5848;DHT22;8756;49.29324300;8.70599800;2022-11-20T15:32:14;7.90;99.90
5848;DHT22;8756;49.29324300;8.70599800;2022-11-20T15:34:40;7.90;99.90
5848;DHT22;8756;49.29324300;8.70599800;2022-11-20T15:37:06;7.90;99.90
5848;DHT22;8756;49.29324300;8.70599800;2022-11-20T15:39:32;7.90;99.90
5848;DHT22;8756;49.29324300;8.70599800;2022-11-20T15:41:58;7.90;99.90
5848;DHT22;8756;49.29324300;8.70599800;2022-11-20T15:44:24;7.90;99.90
5848;DHT22;8756;49.29324300;8.70599800;2022-11-20T15:46:53;7.90;99.90